createdAt,value
2018-09-12T00:01:34.913Z,2.77
2018-09-12T00:04:03.123Z,2.27
2018-09-12T00:06:31.345Z,2.43
2018-09-12T00:08:59.567Z,2.67
2018-09-12T00:11:27.863Z,2.50
2018-09-12T00:13:56.108Z,2.70
2018-09-12T00:16:24.324Z,2.63
2018-09-12T00:18:52.534Z,2.53
2018-09-12T00:21:20.781Z,3.10
2018-09-12T00:23:49.004Z,2.70
2018-09-12T00:26:17.263Z,2.77
2018-09-12T00:28:45.495Z,2.70
2018-09-12T00:31:13.736Z,2.60
2018-09-12T00:33:41.953Z,2.50
2018-09-12T00:36:10.176Z,2.83
2018-09-12T00:38:38.401Z,2.70
2018-09-12T00:41:06.629Z,2.87
2018-09-12T00:43:34.864Z,2.60
2018-09-12T00:46:03.100Z,2.70
2018-09-12T00:48:31.375Z,2.30
2018-09-12T00:50:59.615Z,2.63
2018-09-12T00:53:27.835Z,2.50
2018-09-12T00:55:56.073Z,2.70
2018-09-12T00:58:24.264Z,2.83
2018-09-12T01:00:52.497Z,2.63
2018-09-12T01:03:20.740Z,2.53
2018-09-12T01:05:48.969Z,3.20
2018-09-12T01:08:17.206Z,2.90
2018-09-12T01:10:45.426Z,3.07
2018-09-12T01:13:13.643Z,2.60
2018-09-12T01:15:41.895Z,2.90
2018-09-12T01:18:14.378Z,2.70
2018-09-12T01:20:42.599Z,2.70
2018-09-12T01:23:10.855Z,2.53
2018-09-12T01:25:39.077Z,2.43
2018-09-12T01:28:07.328Z,2.90
2018-09-12T01:30:35.572Z,2.80
2018-09-12T01:33:03.793Z,2.80
2018-09-12T01:35:31.997Z,2.83
2018-09-12T01:38:00.262Z,2.57
2018-09-12T01:40:28.472Z,2.97
2018-09-12T01:42:56.727Z,2.60
2018-09-12T01:45:24.967Z,2.80
2018-09-12T01:47:53.195Z,2.60
2018-09-12T01:50:21.448Z,3.07
2018-09-12T01:52:49.677Z,3.20
2018-09-12T01:55:17.892Z,3.03
2018-09-12T01:57:46.129Z,3.07
2018-09-12T02:00:16.266Z,3.33
2018-09-12T02:02:45.276Z,3.00
2018-09-12T02:05:13.502Z,3.20
2018-09-12T02:07:41.711Z,3.03
2018-09-12T02:10:11.533Z,3.00
2018-09-12T02:12:39.773Z,3.00
2018-09-12T02:15:07.999Z,3.43
2018-09-12T02:17:36.260Z,3.03
2018-09-12T02:20:05.019Z,2.43
2018-09-12T02:22:33.832Z,3.13
2018-09-12T02:25:02.158Z,2.40
2018-09-12T02:27:30.431Z,2.60
2018-09-12T02:29:58.631Z,2.90
2018-09-12T02:32:26.960Z,2.70
2018-09-12T02:34:55.172Z,3.00
2018-09-12T02:37:23.414Z,2.70
2018-09-12T02:39:51.667Z,2.70
2018-09-12T02:42:19.896Z,2.83
2018-09-12T02:44:48.102Z,3.00
2018-09-12T02:47:21.783Z,2.70
2018-09-12T02:49:49.983Z,2.60
2018-09-12T02:52:18.221Z,3.07
2018-09-12T02:54:46.432Z,2.80
2018-09-12T02:57:14.862Z,2.77
2018-09-12T02:59:45.443Z,3.00
2018-09-12T03:02:13.688Z,3.13
2018-09-12T03:04:41.933Z,2.67
2018-09-12T03:07:10.199Z,2.77
2018-09-12T03:09:38.395Z,2.90
2018-09-12T03:12:06.617Z,2.80
2018-09-12T03:14:34.841Z,2.60
2018-09-12T03:17:03.360Z,2.83
2018-09-12T03:19:31.678Z,2.80
2018-09-12T03:22:00.022Z,2.93
2018-09-12T03:24:28.257Z,2.80
2018-09-12T03:26:56.626Z,2.80
2018-09-12T03:29:24.852Z,2.77
2018-09-12T03:31:53.053Z,2.93
2018-09-12T03:34:21.712Z,2.90
2018-09-12T03:36:49.944Z,2.80
2018-09-12T03:39:18.189Z,2.70
2018-09-12T03:41:46.424Z,3.07
2018-09-12T03:44:14.651Z,2.87
2018-09-12T03:46:42.871Z,3.13
2018-09-12T03:49:11.768Z,3.00
2018-09-12T03:51:40.023Z,2.90
2018-09-12T03:54:08.282Z,2.90
2018-09-12T03:56:36.567Z,2.83
2018-09-12T03:59:05.116Z,3.10
2018-09-12T04:01:33.430Z,2.83
2018-09-12T04:04:18.579Z,2.80
2018-09-12T04:06:46.808Z,2.67
2018-09-12T04:09:15.081Z,3.17
2018-09-12T04:11:43.312Z,3.30
2018-09-12T04:14:11.522Z,3.00
2018-09-12T04:16:39.749Z,3.30
2018-09-12T04:19:08.013Z,3.10
2018-09-12T04:21:36.428Z,3.60
2018-09-12T04:24:04.726Z,2.83
2018-09-12T04:26:32.901Z,2.90
2018-09-12T04:29:01.125Z,4.13
2018-09-12T04:31:29.357Z,4.00
2018-09-12T04:33:57.592Z,3.97
2018-09-12T04:36:25.797Z,3.60
2018-09-12T04:38:54.260Z,4.23
2018-09-12T04:41:22.516Z,3.40
2018-09-12T04:43:50.804Z,3.67
2018-09-12T04:46:19.049Z,3.80
2018-09-12T04:48:47.348Z,3.87
2018-09-12T04:51:15.581Z,3.30
2018-09-12T04:53:43.855Z,3.60
2018-09-12T04:56:12.101Z,2.97
2018-09-12T04:58:40.327Z,3.30
2018-09-12T05:01:08.555Z,3.60
2018-09-12T05:03:36.780Z,3.20
2018-09-12T05:06:04.994Z,3.30
2018-09-12T05:08:33.321Z,3.40
2018-09-12T05:11:01.561Z,3.60
2018-09-12T05:13:30.003Z,3.43
2018-09-12T05:15:58.239Z,3.57
2018-09-12T05:18:26.540Z,3.23
2018-09-12T05:20:54.765Z,3.37
2018-09-12T05:23:23.027Z,3.60
2018-09-12T05:25:51.273Z,3.50
2018-09-12T05:28:19.591Z,3.43
2018-09-12T05:30:47.782Z,3.60
2018-09-12T05:33:16.001Z,3.47
2018-09-12T05:35:44.226Z,3.47
2018-09-12T05:38:12.645Z,3.63
2018-09-12T05:40:40.884Z,3.53
2018-09-12T05:43:09.112Z,3.07
2018-09-12T05:45:37.419Z,3.07
2018-09-12T05:48:05.793Z,3.43
2018-09-12T05:50:34.123Z,3.13
2018-09-12T05:53:04.244Z,3.27
2018-09-12T05:55:32.486Z,3.57
2018-09-12T05:58:00.708Z,3.27
2018-09-12T06:00:28.960Z,3.17
2018-09-12T06:02:57.826Z,3.37
2018-09-12T06:05:26.065Z,3.23
2018-09-12T06:07:54.304Z,3.00
2018-09-12T06:10:22.628Z,3.07
2018-09-12T06:12:50.818Z,3.40
2018-09-12T06:15:19.040Z,3.30
2018-09-12T06:17:47.258Z,3.23
2018-09-12T06:20:15.490Z,3.13
2018-09-12T06:22:43.733Z,3.20
2018-09-12T06:25:11.960Z,3.40
2018-09-12T06:27:40.176Z,3.07
2018-09-12T06:30:08.537Z,2.97
2018-09-12T06:32:36.742Z,3.10
2018-09-12T06:35:06.005Z,2.80
2018-09-12T06:37:34.236Z,3.03
2018-09-12T06:40:02.466Z,3.00
2018-09-12T06:42:30.814Z,3.23
2018-09-12T06:44:59.059Z,3.20
2018-09-12T06:47:27.292Z,2.93
2018-09-12T06:49:56.535Z,3.07
2018-09-12T06:52:24.766Z,3.03
2018-09-12T06:54:53.010Z,3.17
2018-09-12T06:57:21.383Z,3.17
2018-09-12T06:59:50.268Z,3.13
2018-09-12T07:02:18.584Z,2.97
2018-09-12T07:04:46.826Z,3.30
2018-09-12T07:07:15.033Z,2.90
2018-09-12T07:09:43.868Z,2.83
2018-09-12T07:12:12.083Z,3.37
2018-09-12T07:14:40.312Z,3.00
2018-09-12T07:17:08.503Z,2.70
2018-09-12T07:19:36.769Z,2.93
2018-09-12T07:22:04.993Z,3.50
2018-09-12T07:24:33.300Z,2.90
2018-09-12T07:27:01.468Z,2.50
2018-09-12T07:29:29.716Z,4.58
2018-09-12T07:31:57.958Z,3.98
2018-09-12T07:34:26.176Z,6.05
2018-09-12T07:36:54.430Z,2.70
2018-09-12T07:39:22.648Z,2.55
2018-09-12T07:41:50.890Z,2.87
2018-09-12T07:44:19.207Z,2.72
2018-09-12T07:46:47.438Z,2.50
2018-09-12T07:49:15.661Z,2.50
2018-09-12T07:51:44.644Z,2.72
2018-09-12T07:54:12.862Z,2.52
2018-09-12T07:56:41.163Z,2.60
2018-09-12T07:59:14.397Z,2.70
2018-09-12T08:01:42.810Z,2.75
2018-09-12T08:04:11.037Z,2.65
2018-09-12T08:06:39.305Z,2.72
2018-09-12T08:09:09.211Z,2.85
2018-09-12T08:11:37.451Z,2.70
2018-09-12T08:14:05.780Z,2.80
2018-09-12T08:16:34.055Z,2.58
2018-09-12T08:19:02.370Z,2.70
2018-09-12T08:21:30.531Z,2.60
2018-09-12T08:23:59.174Z,2.40
2018-09-12T08:26:27.444Z,2.33
2018-09-12T08:28:55.746Z,2.40
2018-09-12T08:31:23.998Z,2.50
2018-09-12T08:33:52.216Z,2.42
2018-09-12T08:36:20.504Z,2.45
2018-09-12T08:38:48.725Z,2.70
2018-09-12T08:41:17.013Z,2.58
2018-09-12T08:43:45.239Z,2.65
2018-09-12T08:46:13.505Z,2.20
2018-09-12T08:48:41.807Z,2.30
2018-09-12T08:51:10.057Z,2.25
2018-09-12T08:53:38.280Z,2.30
2018-09-12T08:56:06.509Z,2.40
2018-09-12T08:58:34.808Z,2.45
2018-09-12T09:01:03.045Z,1.90
2018-09-12T09:03:31.280Z,3.10
2018-09-12T09:05:59.494Z,2.40
2018-09-12T09:08:27.975Z,2.02
2018-09-12T09:10:56.206Z,1.92
2018-09-12T09:13:24.420Z,2.12
2018-09-12T09:15:52.673Z,2.22
2018-09-12T09:18:20.900Z,2.42
2018-09-12T09:20:49.134Z,2.80
2018-09-12T09:23:17.367Z,2.35
2018-09-12T09:25:45.570Z,2.50
2018-09-12T09:28:13.791Z,2.27
2018-09-12T09:30:42.014Z,2.17
2018-09-12T09:33:10.285Z,2.20
2018-09-12T09:35:38.642Z,2.10
2018-09-12T09:38:06.781Z,1.90
2018-09-12T09:40:34.999Z,2.05
2018-09-12T09:43:03.237Z,2.02
2018-09-12T09:45:31.471Z,2.20
2018-09-12T09:47:59.783Z,2.37
2018-09-12T09:50:27.940Z,2.10
2018-09-12T09:52:56.208Z,2.20
2018-09-12T09:55:24.415Z,2.00
2018-09-12T09:57:52.668Z,2.05
2018-09-12T10:00:26.100Z,2.15
2018-09-12T10:02:59.843Z,2.10
2018-09-12T10:05:33.399Z,2.33
2018-09-12T10:08:07.037Z,2.45
2018-09-12T10:10:35.497Z,2.20
2018-09-12T10:13:04.356Z,2.10
2018-09-12T10:15:32.558Z,2.12
2018-09-12T10:18:00.763Z,2.08
2018-09-12T10:20:28.996Z,1.95
2018-09-12T10:22:57.248Z,1.90
2018-09-12T10:25:25.471Z,1.85
2018-09-12T10:27:53.724Z,2.02
2018-09-12T10:30:21.928Z,2.10
2018-09-12T10:32:50.151Z,1.92
2018-09-12T10:35:18.377Z,1.92
2018-09-12T10:37:46.615Z,2.17
2018-09-12T10:40:14.841Z,2.08
2018-09-12T10:42:43.085Z,2.02
2018-09-12T10:45:11.301Z,1.85
2018-09-12T10:47:39.557Z,1.95
2018-09-12T10:50:07.747Z,1.85
2018-09-12T10:52:35.984Z,1.90
2018-09-12T10:55:04.192Z,2.00
2018-09-12T10:57:32.424Z,2.00
2018-09-12T11:00:00.865Z,2.20
2018-09-12T11:02:29.104Z,1.70
2018-09-12T11:04:57.375Z,1.90
2018-09-12T11:07:25.626Z,2.95
2018-09-12T11:09:53.901Z,2.58
2018-09-12T11:12:22.108Z,2.10
2018-09-12T11:14:50.320Z,2.12
2018-09-12T11:17:18.544Z,1.67
2018-09-12T11:19:46.753Z,1.92
2018-09-12T11:22:14.999Z,1.67
2018-09-12T11:24:43.268Z,2.17
2018-09-12T11:27:11.525Z,1.82
2018-09-12T11:29:39.760Z,1.20
2018-09-12T11:32:08.031Z,2.05
2018-09-12T11:34:36.267Z,1.37
2018-09-12T11:37:04.481Z,1.40
2018-09-12T11:39:32.703Z,1.50
2018-09-12T11:42:00.923Z,1.85
2018-09-12T11:44:29.170Z,1.80
2018-09-12T11:46:57.399Z,1.50
2018-09-12T11:49:25.636Z,1.60
2018-09-12T11:51:53.901Z,1.55
2018-09-12T11:54:22.196Z,1.50
2018-09-12T11:56:50.446Z,1.60
2018-09-12T11:59:18.732Z,1.60
2018-09-12T12:01:46.959Z,1.40
2018-09-12T12:04:15.246Z,1.70
2018-09-12T12:06:43.461Z,1.65
2018-09-12T12:09:11.810Z,2.00
2018-09-12T12:11:40.716Z,1.60
2018-09-12T12:14:08.959Z,1.70
2018-09-12T12:16:37.244Z,2.00
2018-09-12T12:19:05.572Z,1.70
2018-09-12T12:21:33.814Z,1.80
2018-09-12T12:24:02.227Z,1.77
2018-09-12T12:26:30.456Z,2.10
2018-09-12T12:28:58.688Z,2.00
2018-09-12T12:31:26.957Z,2.30
2018-09-12T12:33:55.239Z,2.30
2018-09-12T12:36:23.458Z,2.17
2018-09-12T12:38:51.708Z,3.30
2018-09-12T12:41:19.986Z,2.15
2018-09-12T12:43:48.167Z,2.15
2018-09-12T12:46:16.483Z,2.37
2018-09-12T12:48:44.749Z,2.17
2018-09-12T12:51:12.972Z,4.67
2018-09-12T12:53:41.233Z,2.10
2018-09-12T12:56:09.445Z,2.10
2018-09-12T12:58:37.702Z,2.40
2018-09-12T13:01:06.111Z,2.52
2018-09-12T13:03:34.340Z,2.30
2018-09-12T13:06:02.542Z,2.20
2018-09-12T13:08:30.792Z,2.15
2018-09-12T13:10:59.035Z,2.33
2018-09-12T13:13:27.293Z,2.55
2018-09-12T13:15:55.515Z,2.40
2018-09-12T13:18:23.773Z,2.30
2018-09-12T13:20:52.105Z,2.15
2018-09-12T13:23:20.368Z,1.82
2018-09-12T13:25:48.598Z,2.50
2018-09-12T13:28:16.808Z,2.42
2018-09-12T13:30:45.192Z,1.90
2018-09-12T13:33:13.404Z,2.33
2018-09-12T13:35:41.625Z,2.20
2018-09-12T13:38:09.836Z,2.15
2018-09-12T13:40:38.063Z,1.77
2018-09-12T13:43:06.343Z,1.80
2018-09-12T13:45:34.592Z,1.90
2018-09-12T13:48:02.816Z,2.10
2018-09-12T13:50:31.271Z,1.80
2018-09-12T13:52:59.531Z,1.80
2018-09-12T13:55:27.783Z,1.80
2018-09-12T13:57:56.025Z,1.85
2018-09-12T14:00:24.269Z,1.77
2018-09-12T14:02:52.494Z,1.87
2018-09-12T14:05:20.763Z,1.80
2018-09-12T14:07:49.152Z,2.00
2018-09-12T14:10:17.396Z,1.80
2018-09-12T14:12:45.607Z,1.80
2018-09-12T14:15:13.833Z,1.75
2018-09-12T14:17:42.061Z,1.92
2018-09-12T14:20:10.297Z,2.30
2018-09-12T14:22:38.581Z,1.60
2018-09-12T14:25:06.826Z,1.65
2018-09-12T14:27:35.048Z,1.72
2018-09-12T14:30:03.277Z,2.10
2018-09-12T14:32:31.497Z,2.50
2018-09-12T14:34:59.729Z,2.10
2018-09-12T14:37:27.945Z,1.77
2018-09-12T14:39:56.233Z,1.77
2018-09-12T14:42:24.484Z,1.90
2018-09-12T14:44:52.854Z,1.82
2018-09-12T14:47:21.085Z,1.77
2018-09-12T14:49:49.352Z,1.57
2018-09-12T14:52:18.009Z,2.20
2018-09-12T14:54:46.270Z,2.12
2018-09-12T14:57:14.516Z,2.02
2018-09-12T14:59:43.050Z,2.77
2018-09-12T15:02:11.401Z,2.00
2018-09-12T15:04:39.684Z,2.40
2018-09-12T15:07:07.940Z,1.98
2018-09-12T15:09:36.176Z,2.30
2018-09-12T15:12:04.612Z,2.08
2018-09-12T15:14:32.892Z,2.02
2018-09-12T15:17:01.133Z,1.85
2018-09-12T15:19:29.511Z,2.15
2018-09-12T15:21:57.857Z,2.22
2018-09-12T15:24:26.074Z,2.10
2018-09-12T15:26:54.390Z,2.12
2018-09-12T15:29:22.580Z,2.00
2018-09-12T15:31:50.808Z,2.35
2018-09-12T15:34:19.025Z,1.95
2018-09-12T15:36:47.483Z,2.58
2018-09-12T15:39:15.709Z,2.37
2018-09-12T15:41:43.970Z,2.37
2018-09-12T15:44:12.221Z,2.10
2018-09-12T15:46:40.493Z,2.37
2018-09-12T15:49:08.722Z,2.80
2018-09-12T15:51:36.941Z,2.67
2018-09-12T15:54:05.210Z,2.45
2018-09-12T15:56:33.450Z,2.40
2018-09-12T15:59:01.727Z,2.50
2018-09-12T16:01:29.977Z,2.92
2018-09-12T16:03:58.188Z,3.02
2018-09-12T16:06:26.451Z,2.80
2018-09-12T16:08:54.710Z,2.80
2018-09-12T16:11:22.964Z,2.77
2018-09-12T16:13:51.238Z,3.52
2018-09-12T16:16:19.508Z,3.80
2018-09-12T16:18:47.758Z,3.47
2018-09-12T16:21:16.000Z,3.72
2018-09-12T16:23:44.248Z,3.70
2018-09-12T16:26:12.638Z,3.72
2018-09-12T16:28:41.061Z,3.95
2018-09-12T16:31:09.358Z,3.50
2018-09-12T16:33:37.914Z,3.60
2018-09-12T16:36:06.028Z,3.80
2018-09-12T16:38:34.364Z,3.92
2018-09-12T16:41:02.605Z,3.87
2018-09-12T16:43:30.839Z,3.80
2018-09-12T16:45:59.072Z,3.77
2018-09-12T16:48:27.352Z,4.33
2018-09-12T16:50:55.654Z,4.10
2018-09-12T16:53:23.875Z,4.03
2018-09-12T16:55:52.138Z,4.80
2018-09-12T16:58:20.416Z,4.60
2018-09-12T17:00:48.683Z,3.90
2018-09-12T17:03:17.088Z,4.57
2018-09-12T17:05:45.382Z,4.20
2018-09-12T17:08:13.745Z,4.40
2018-09-12T17:10:42.007Z,4.57
2018-09-12T17:13:10.384Z,4.80
2018-09-12T17:15:38.684Z,4.60
2018-09-12T17:18:06.972Z,4.40
2018-09-12T17:20:35.202Z,4.57
2018-09-12T17:23:03.509Z,4.70
2018-09-12T17:25:32.434Z,3.90
2018-09-12T17:28:00.789Z,3.97
2018-09-12T17:30:29.020Z,3.73
2018-09-12T17:32:57.288Z,4.20
2018-09-12T17:35:25.564Z,3.80
2018-09-12T17:37:53.821Z,3.70
2018-09-12T17:40:22.070Z,4.20
2018-09-12T17:42:50.338Z,3.70
2018-09-12T17:45:18.574Z,3.83
2018-09-12T17:47:46.881Z,3.53
2018-09-12T17:50:15.228Z,3.47
2018-09-12T17:52:43.494Z,3.70
2018-09-12T17:55:11.925Z,3.87
2018-09-12T17:57:40.188Z,3.40
2018-09-12T18:00:08.479Z,4.00
2018-09-12T18:02:36.717Z,3.63
2018-09-12T18:05:05.002Z,3.73
2018-09-12T18:07:33.272Z,3.77
2018-09-12T18:10:01.549Z,3.90
2018-09-12T18:12:29.804Z,4.10
2018-09-12T18:14:58.074Z,3.60
2018-09-12T18:17:26.368Z,4.13
2018-09-12T18:19:54.614Z,3.60
2018-09-12T18:22:22.881Z,3.60
2018-09-12T18:24:51.222Z,3.73
2018-09-12T18:27:19.461Z,3.40
2018-09-12T18:29:49.071Z,3.70
2018-09-12T18:32:17.321Z,3.73
2018-09-12T18:34:45.563Z,3.67
2018-09-12T18:37:13.827Z,3.80
2018-09-12T18:39:43.024Z,4.27
2018-09-12T18:42:11.280Z,4.03
2018-09-12T18:44:39.512Z,4.23
2018-09-12T18:47:07.781Z,4.00
2018-09-12T18:49:36.020Z,4.00
2018-09-12T18:52:04.272Z,3.80
2018-09-12T18:54:32.516Z,3.90
2018-09-12T18:57:00.740Z,4.20
2018-09-12T18:59:28.994Z,3.70
2018-09-12T19:01:57.210Z,4.03
2018-09-12T19:04:25.494Z,3.50
2018-09-12T19:06:53.824Z,3.70
2018-09-12T19:09:22.010Z,3.50
2018-09-12T19:11:50.231Z,3.70
2018-09-12T19:14:18.529Z,3.93
2018-09-12T19:16:46.788Z,3.50
2018-09-12T19:19:15.038Z,3.73
2018-09-12T19:21:43.350Z,3.53
2018-09-12T19:24:11.616Z,3.20
2018-09-12T19:26:39.864Z,3.37
2018-09-12T19:29:08.084Z,3.10
2018-09-12T19:31:36.290Z,3.60
2018-09-12T19:34:04.545Z,2.97
2018-09-12T19:36:32.821Z,2.50
2018-09-12T19:39:01.078Z,2.77
2018-09-12T19:41:29.325Z,2.57
2018-09-12T19:43:57.620Z,2.30
2018-09-12T19:46:25.829Z,2.40
2018-09-12T19:48:54.109Z,2.10
2018-09-12T19:51:22.333Z,2.60
2018-09-12T19:53:50.612Z,2.27
2018-09-12T19:56:18.923Z,2.07
2018-09-12T19:58:47.217Z,2.57
2018-09-12T20:01:15.449Z,1.83
2018-09-12T20:03:43.677Z,1.97
2018-09-12T20:06:12.723Z,2.20
2018-09-12T20:08:40.973Z,2.30
2018-09-12T20:11:09.201Z,2.00
2018-09-12T20:13:37.461Z,2.00
2018-09-12T20:16:05.761Z,1.60
2018-09-12T20:18:33.952Z,1.73
2018-09-12T20:21:02.297Z,1.53
2018-09-12T20:23:30.780Z,1.50
2018-09-12T20:25:58.994Z,1.20
2018-09-12T20:28:27.273Z,1.10
2018-09-12T20:30:56.114Z,1.30
2018-09-12T20:33:24.496Z,0.90
2018-09-12T20:35:52.735Z,1.00
2018-09-12T20:38:21.008Z,0.80
2018-09-12T20:40:49.266Z,0.90
2018-09-12T20:43:18.649Z,0.80
2018-09-12T20:45:47.003Z,1.00
2018-09-12T20:48:15.296Z,0.90
2018-09-12T20:50:43.555Z,1.00
2018-09-12T20:53:11.806Z,0.90
2018-09-12T20:55:40.066Z,1.00
2018-09-12T20:58:08.307Z,0.93
2018-09-12T21:00:36.565Z,0.93
2018-09-12T21:03:04.786Z,1.00
2018-09-12T21:05:33.047Z,0.80
2018-09-12T21:08:01.295Z,1.00
2018-09-12T21:10:29.604Z,1.00
2018-09-12T21:12:57.855Z,0.90
2018-09-12T21:15:26.994Z,0.80
2018-09-12T21:17:55.225Z,1.00
2018-09-12T21:20:23.548Z,0.80
2018-09-12T21:22:51.785Z,1.10
2018-09-12T21:25:20.031Z,0.90
2018-09-12T21:27:48.293Z,0.93
2018-09-12T21:30:16.584Z,0.80
2018-09-12T21:32:44.864Z,1.00
2018-09-12T21:35:13.205Z,0.90
2018-09-12T21:37:41.483Z,1.07
2018-09-12T21:40:09.731Z,1.00
2018-09-12T21:42:37.985Z,1.00
2018-09-12T21:45:06.310Z,0.90
2018-09-12T21:47:34.562Z,1.00
2018-09-12T21:50:02.833Z,1.00
2018-09-12T21:52:31.121Z,1.03
2018-09-12T21:54:59.379Z,0.90
2018-09-12T21:57:27.656Z,1.00
2018-09-12T21:59:56.340Z,1.00
2018-09-12T22:02:24.603Z,1.03
2018-09-12T22:04:52.882Z,0.80
2018-09-12T22:07:22.309Z,1.10
2018-09-12T22:09:50.598Z,1.20
2018-09-12T22:12:19.000Z,1.00
2018-09-12T22:14:47.268Z,0.90
2018-09-12T22:17:15.488Z,0.90
2018-09-12T22:19:43.780Z,1.10
2018-09-12T22:22:11.998Z,1.00
2018-09-12T22:24:40.235Z,1.03
2018-09-12T22:27:08.477Z,0.90
2018-09-12T22:29:36.757Z,0.90
2018-09-12T22:32:04.999Z,1.10
2018-09-12T22:34:33.302Z,1.03
2018-09-12T22:37:01.580Z,1.00
2018-09-12T22:39:29.826Z,1.00
2018-09-12T22:41:58.048Z,1.10
2018-09-12T22:44:26.352Z,0.80
2018-09-12T22:46:54.628Z,0.90
2018-09-12T22:49:22.879Z,1.00
2018-09-12T22:51:51.162Z,1.17
2018-09-12T22:54:19.391Z,1.30
2018-09-12T22:56:47.789Z,1.10
2018-09-12T22:59:16.076Z,0.90
2018-09-12T23:01:44.521Z,1.30
2018-09-12T23:04:12.787Z,1.60
2018-09-12T23:06:41.041Z,1.47
2018-09-12T23:09:09.808Z,2.27
2018-09-12T23:11:38.502Z,1.90
2018-09-12T23:14:07.279Z,1.93
2018-09-12T23:16:35.673Z,1.90
2018-09-12T23:19:03.940Z,1.90
2018-09-12T23:21:32.237Z,1.77
2018-09-12T23:24:00.517Z,2.10
2018-09-12T23:26:28.768Z,1.70
2018-09-12T23:28:57.043Z,2.30
2018-09-12T23:31:25.277Z,3.07
2018-09-12T23:33:53.517Z,2.30
2018-09-12T23:36:21.808Z,1.87
2018-09-12T23:38:50.105Z,1.80
2018-09-12T23:41:18.367Z,2.07
2018-09-12T23:43:46.635Z,1.60
2018-09-12T23:46:14.920Z,1.83
2018-09-12T23:48:43.244Z,1.80
2018-09-12T23:51:11.528Z,2.07
2018-09-12T23:53:39.790Z,1.70
2018-09-12T23:56:08.087Z,1.90
2018-09-12T23:58:36.464Z,1.93
